createdAt,value
2018-05-31T00:00:33.971Z,8.37
2018-05-31T00:03:02.247Z,7.83
2018-05-31T00:05:30.547Z,7.77
2018-05-31T00:07:58.845Z,7.57
2018-05-31T00:10:27.135Z,7.63
2018-05-31T00:12:55.444Z,7.10
2018-05-31T00:15:23.799Z,6.77
2018-05-31T00:17:52.090Z,7.40
2018-05-31T00:20:20.445Z,6.87
2018-05-31T00:22:48.740Z,6.20
2018-05-31T00:25:17.282Z,6.43
2018-05-31T00:27:45.580Z,6.33
2018-05-31T00:30:13.874Z,6.50
2018-05-31T00:32:42.160Z,5.80
2018-05-31T00:35:11.243Z,5.73
2018-05-31T00:37:39.530Z,5.60
2018-05-31T00:40:07.830Z,5.40
2018-05-31T00:42:36.112Z,5.40
2018-05-31T00:45:05.214Z,4.77
2018-05-31T00:47:33.527Z,5.47
2018-05-31T00:50:01.821Z,4.90
2018-05-31T00:52:30.131Z,4.97
2018-05-31T00:54:58.402Z,5.90
2018-05-31T00:57:26.690Z,5.30
2018-05-31T00:59:54.989Z,5.63
2018-05-31T01:02:24.030Z,5.17
2018-05-31T01:04:52.439Z,4.93
2018-05-31T01:07:20.729Z,5.20
2018-05-31T01:09:49.030Z,4.77
2018-05-31T01:12:17.542Z,4.53
2018-05-31T01:14:45.840Z,4.97
2018-05-31T01:17:14.110Z,4.83
2018-05-31T01:19:49.123Z,5.40
2018-05-31T01:22:17.418Z,5.03
2018-05-31T01:24:45.704Z,5.47
2018-05-31T01:27:13.998Z,5.57
2018-05-31T01:29:42.314Z,5.50
2018-05-31T01:32:10.612Z,5.40
2018-05-31T01:34:39.274Z,5.30
2018-05-31T01:37:07.556Z,5.30
2018-05-31T01:39:35.831Z,5.53
2018-05-31T01:42:04.126Z,5.27
2018-05-31T01:44:32.395Z,5.57
2018-05-31T01:47:00.693Z,5.33
2018-05-31T01:49:29.019Z,5.50
2018-05-31T01:51:58.034Z,5.37
2018-05-31T01:54:26.490Z,6.30
2018-05-31T01:56:54.774Z,6.60
2018-05-31T01:59:23.078Z,6.87
2018-05-31T02:01:51.386Z,6.47
2018-05-31T02:04:19.715Z,6.40
2018-05-31T02:06:47.997Z,6.17
2018-05-31T02:09:17.076Z,6.60
2018-05-31T02:11:45.359Z,7.40
2018-05-31T02:14:13.801Z,7.20
2018-05-31T02:16:42.194Z,6.93
2018-05-31T02:19:10.485Z,6.70
2018-05-31T02:21:38.778Z,7.00
2018-05-31T02:24:07.082Z,7.30
2018-05-31T02:26:35.397Z,7.10
2018-05-31T02:29:03.683Z,7.07
2018-05-31T02:31:31.959Z,7.10
2018-05-31T02:34:00.256Z,7.27
2018-05-31T02:36:28.540Z,7.23
2018-05-31T02:38:56.806Z,6.30
2018-05-31T02:41:25.089Z,6.87
2018-05-31T02:43:53.372Z,7.40
2018-05-31T02:46:21.649Z,7.30
2018-05-31T02:48:49.922Z,7.40
2018-05-31T02:51:19.010Z,7.73
2018-05-31T02:53:47.344Z,6.60
2018-05-31T02:56:15.643Z,7.60
2018-05-31T02:58:43.919Z,6.97
2018-05-31T03:01:12.279Z,7.10
2018-05-31T03:03:40.594Z,6.83
2018-05-31T03:06:08.871Z,7.10
2018-05-31T03:08:37.170Z,6.73
2018-05-31T03:11:05.462Z,6.73
2018-05-31T03:13:33.746Z,6.60
2018-05-31T03:16:02.053Z,6.67
2018-05-31T03:18:30.334Z,6.63
2018-05-31T03:20:58.899Z,6.27
2018-05-31T03:23:27.183Z,6.90
2018-05-31T03:25:56.238Z,5.63
2018-05-31T03:28:24.672Z,6.37
2018-05-31T03:30:53.733Z,6.73
2018-05-31T03:33:22.016Z,6.93
2018-05-31T03:35:50.315Z,6.57
2018-05-31T03:38:18.590Z,6.60
2018-05-31T03:40:46.872Z,6.40
2018-05-31T03:43:15.147Z,6.57
2018-05-31T03:45:43.607Z,6.30
2018-05-31T03:48:12.659Z,6.60
2018-05-31T03:50:41.088Z,6.80
2018-05-31T03:53:09.369Z,6.97
2018-05-31T03:55:37.933Z,7.10
2018-05-31T03:58:06.229Z,7.27
2018-05-31T04:00:34.506Z,6.80
2018-05-31T04:03:02.809Z,6.37
2018-05-31T04:05:31.113Z,6.37
2018-05-31T04:07:59.429Z,6.17
2018-05-31T04:10:28.508Z,6.67
2018-05-31T04:12:56.848Z,6.30
2018-05-31T04:15:25.093Z,6.80
2018-05-31T04:17:53.383Z,6.20
2018-05-31T04:20:21.672Z,6.87
2018-05-31T04:22:50.536Z,6.03
2018-05-31T04:25:19.049Z,6.50
2018-05-31T04:27:47.370Z,6.30
2018-05-31T04:30:16.423Z,6.90
2018-05-31T04:32:45.573Z,6.87
2018-05-31T04:35:13.878Z,6.17
2018-05-31T04:37:42.958Z,7.03
2018-05-31T04:40:11.233Z,6.73
2018-05-31T04:42:39.524Z,6.23
2018-05-31T04:45:07.803Z,6.30
2018-05-31T04:47:36.080Z,5.77
2018-05-31T04:50:04.358Z,6.00
2018-05-31T04:52:32.644Z,6.30
2018-05-31T04:55:00.941Z,6.40
2018-05-31T04:57:29.251Z,5.90
2018-05-31T04:59:57.561Z,6.00
2018-05-31T05:02:26.110Z,5.63
2018-05-31T05:04:54.427Z,12.60
2018-05-31T05:07:22.712Z,9.37
2018-05-31T05:09:51.027Z,6.77
2018-05-31T05:12:20.344Z,5.93
2018-05-31T05:14:49.415Z,5.70
2018-05-31T05:17:17.702Z,6.37
2018-05-31T05:19:46.005Z,5.83
2018-05-31T05:22:14.286Z,6.60
2018-05-31T05:24:42.568Z,5.83
2018-05-31T05:27:10.871Z,6.20
2018-05-31T05:29:39.194Z,6.37
2018-05-31T05:32:08.235Z,6.47
2018-05-31T05:34:36.522Z,5.60
2018-05-31T05:37:04.831Z,6.23
2018-05-31T05:39:33.142Z,5.60
2018-05-31T05:42:01.415Z,6.13
2018-05-31T05:44:29.727Z,5.30
2018-05-31T05:46:58.132Z,6.03
2018-05-31T05:49:27.200Z,6.47
2018-05-31T05:51:55.794Z,5.50
2018-05-31T05:56:45.058Z,6.80
2018-05-31T05:59:13.324Z,6.47
2018-05-31T06:01:42.339Z,6.03
2018-05-31T06:04:10.580Z,6.03
2018-05-31T06:06:38.807Z,6.67
2018-05-31T06:09:07.058Z,5.63
2018-05-31T06:11:35.319Z,5.40
2018-05-31T06:14:03.565Z,6.47
2018-05-31T06:16:31.806Z,5.87
2018-05-31T06:19:00.050Z,6.40
2018-05-31T06:21:29.053Z,6.17
2018-05-31T06:23:57.285Z,6.43
2018-05-31T06:26:25.584Z,6.00
2018-05-31T06:28:53.775Z,6.27
2018-05-31T06:31:22.014Z,7.10
2018-05-31T06:33:50.253Z,7.40
2018-05-31T06:36:18.501Z,6.83
2018-05-31T06:38:46.750Z,7.10
2018-05-31T06:41:15.758Z,7.30
2018-05-31T06:43:44.762Z,7.10
2018-05-31T06:46:13.003Z,7.40
2018-05-31T06:48:41.234Z,7.10
2018-05-31T06:51:09.685Z,7.97
2018-05-31T06:53:38.682Z,7.07
2018-05-31T06:56:06.917Z,6.97
2018-05-31T06:58:35.169Z,7.07
2018-05-31T07:01:03.397Z,6.90
2018-05-31T07:03:32.406Z,6.20
2018-05-31T07:06:00.653Z,6.77
2018-05-31T07:08:29.656Z,6.77
2018-05-31T07:10:58.675Z,6.93
2018-05-31T07:13:26.909Z,6.33
2018-05-31T07:15:55.188Z,7.10
2018-05-31T07:18:23.395Z,6.90
2018-05-31T07:20:51.627Z,6.83
2018-05-31T07:23:19.891Z,6.60
2018-05-31T07:25:48.134Z,6.63
2018-05-31T07:28:16.370Z,6.77
2018-05-31T07:30:45.382Z,7.53
2018-05-31T07:33:13.633Z,6.40
2018-05-31T07:35:42.631Z,7.53
2018-05-31T07:38:11.626Z,6.97
2018-05-31T07:40:40.634Z,6.93
2018-05-31T07:43:08.874Z,6.90
2018-05-31T07:45:37.134Z,7.37
2018-05-31T07:48:05.593Z,6.17
2018-05-31T07:50:33.817Z,7.20
2018-05-31T07:53:02.841Z,7.37
2018-05-31T07:55:31.212Z,8.65
2018-05-31T07:57:59.472Z,7.90
2018-05-31T08:00:27.686Z,8.80
2018-05-31T08:02:55.938Z,6.63
2018-05-31T08:05:24.170Z,6.95
2018-05-31T08:07:52.434Z,11.98
2018-05-31T08:10:20.680Z,8.90
2018-05-31T08:12:48.916Z,7.83
2018-05-31T08:15:17.160Z,7.60
2018-05-31T08:17:45.400Z,7.20
2018-05-31T08:20:13.636Z,8.63
2018-05-31T08:22:41.881Z,7.80
2018-05-31T08:25:10.123Z,7.60
2018-05-31T08:27:38.370Z,7.37
2018-05-31T08:30:07.373Z,9.37
2018-05-31T08:32:36.414Z,9.68
2018-05-31T08:35:04.650Z,8.93
2018-05-31T08:37:33.658Z,8.60
2018-05-31T08:40:01.946Z,8.60
2018-05-31T08:42:30.186Z,8.80
2018-05-31T08:44:59.190Z,9.37
2018-05-31T08:47:28.208Z,8.88
2018-05-31T08:49:56.466Z,8.50
2018-05-31T08:52:24.706Z,8.98
2018-05-31T08:54:52.953Z,8.10
2018-05-31T08:57:21.228Z,8.88
2018-05-31T08:59:49.446Z,9.10
2018-05-31T09:02:18.462Z,10.15
2018-05-31T09:04:46.708Z,10.23
2018-05-31T09:07:15.726Z,9.30
2018-05-31T09:09:43.978Z,9.55
2018-05-31T09:12:12.990Z,8.90
2018-05-31T09:14:42.006Z,7.72
2018-05-31T09:17:10.466Z,8.52
2018-05-31T09:19:38.706Z,9.52
2018-05-31T09:22:06.949Z,9.40
2018-05-31T09:24:35.215Z,8.55
2018-05-31T09:27:03.445Z,9.10
2018-05-31T09:29:31.700Z,8.23
2018-05-31T09:31:59.942Z,7.82
2018-05-31T09:34:28.246Z,8.98
2018-05-31T09:36:56.609Z,8.20
2018-05-31T09:39:24.994Z,7.57
2018-05-31T09:41:53.255Z,8.40
2018-05-31T09:44:21.527Z,8.15
2018-05-31T09:46:49.798Z,8.48
2018-05-31T09:49:18.033Z,7.87
2018-05-31T09:51:47.175Z,7.70
2018-05-31T09:54:15.438Z,8.70
2018-05-31T09:56:43.686Z,7.70
2018-05-31T09:59:12.718Z,8.20
2018-05-31T10:01:40.961Z,8.40
2018-05-31T10:04:09.991Z,9.90
2018-05-31T10:06:38.224Z,17.10
2018-05-31T10:09:07.241Z,16.67
2018-05-31T10:11:35.826Z,8.43
2018-05-31T10:14:04.062Z,8.02
2018-05-31T10:16:32.298Z,9.70
2018-05-31T10:19:00.551Z,8.40
2018-05-31T10:21:28.801Z,8.05
2018-05-31T10:23:57.834Z,9.48
2018-05-31T10:26:26.090Z,13.23
2018-05-31T10:28:54.342Z,8.02
2018-05-31T10:31:22.573Z,7.07
2018-05-31T10:33:50.835Z,10.80
2018-05-31T10:36:19.065Z,7.75
2018-05-31T10:38:47.476Z,8.15
2018-05-31T10:41:15.758Z,8.05
2018-05-31T10:43:44.709Z,7.25
2018-05-31T10:46:13.736Z,8.15
2018-05-31T10:48:41.991Z,7.65
2018-05-31T10:51:10.234Z,10.05
2018-05-31T10:53:38.474Z,13.20
2018-05-31T10:56:06.742Z,8.65
2018-05-31T10:58:34.995Z,8.15
2018-05-31T11:01:04.010Z,8.27
2018-05-31T11:03:32.245Z,9.18
2018-05-31T11:06:00.659Z,9.30
2018-05-31T11:08:28.898Z,9.00
2018-05-31T11:10:57.133Z,7.72
2018-05-31T11:13:25.391Z,8.75
2018-05-31T11:15:53.635Z,8.95
2018-05-31T11:18:21.873Z,9.23
2018-05-31T11:20:50.131Z,10.68
2018-05-31T11:23:18.403Z,9.93
2018-05-31T11:25:46.961Z,10.00
2018-05-31T11:28:15.199Z,9.25
2018-05-31T11:30:43.437Z,9.05
2018-05-31T11:33:11.710Z,9.13
2018-05-31T11:35:39.973Z,9.55
2018-05-31T11:38:08.233Z,11.15
2018-05-31T11:40:37.233Z,9.20
2018-05-31T11:43:06.234Z,9.15
2018-05-31T11:45:34.486Z,9.00
2018-05-31T11:48:02.992Z,10.60
2018-05-31T11:50:32.008Z,10.95
2018-05-31T11:53:00.229Z,9.48
2018-05-31T11:55:28.480Z,8.60
2018-05-31T11:57:56.723Z,28.60
2018-05-31T12:00:24.970Z,9.40
2018-05-31T12:02:54.182Z,9.25
2018-05-31T12:05:22.418Z,8.18
2018-05-31T12:07:50.655Z,8.43
2018-05-31T12:10:18.905Z,9.35
2018-05-31T12:12:47.149Z,8.38
2018-05-31T12:15:15.391Z,7.87
2018-05-31T12:17:43.837Z,11.68
2018-05-31T12:20:12.083Z,9.45
2018-05-31T12:22:40.326Z,7.07
2018-05-31T12:25:08.562Z,7.87
2018-05-31T12:27:37.570Z,7.70
2018-05-31T12:30:05.810Z,7.45
2018-05-31T12:32:34.923Z,8.30
2018-05-31T12:35:03.926Z,7.28
2018-05-31T12:37:32.181Z,7.70
2018-05-31T12:40:01.194Z,7.47
2018-05-31T12:42:29.426Z,7.40
2018-05-31T12:44:57.673Z,7.47
2018-05-31T12:47:26.118Z,7.22
2018-05-31T12:49:54.393Z,7.80
2018-05-31T12:52:22.625Z,7.12
2018-05-31T12:54:50.881Z,7.62
2018-05-31T12:57:19.121Z,7.70
2018-05-31T12:59:47.597Z,7.28
2018-05-31T13:02:16.603Z,7.28
2018-05-31T13:04:44.838Z,7.43
2018-05-31T13:07:13.089Z,6.87
2018-05-31T13:09:41.330Z,7.20
2018-05-31T13:12:09.566Z,7.07
2018-05-31T13:14:37.810Z,7.28
2018-05-31T13:17:06.064Z,7.50
2018-05-31T13:19:34.305Z,6.45
2018-05-31T13:22:03.301Z,6.50
2018-05-31T13:24:32.305Z,5.87
2018-05-31T13:27:01.318Z,7.03
2018-05-31T13:29:29.570Z,6.70
2018-05-31T13:31:58.666Z,6.12
2018-05-31T13:34:27.686Z,6.30
2018-05-31T13:36:55.920Z,6.60
2018-05-31T13:39:24.931Z,5.85
2018-05-31T13:41:54.041Z,7.43
2018-05-31T13:44:22.278Z,6.75
2018-05-31T13:46:50.537Z,6.10
2018-05-31T13:49:18.985Z,6.03
2018-05-31T13:51:47.208Z,6.28
2018-05-31T13:54:16.205Z,6.50
2018-05-31T13:56:44.455Z,5.55
2018-05-31T13:59:12.694Z,5.70
2018-05-31T14:01:40.961Z,5.93
2018-05-31T14:04:09.194Z,6.00
2018-05-31T14:06:37.446Z,6.62
2018-05-31T14:09:06.270Z,6.28
2018-05-31T14:11:34.514Z,6.72
2018-05-31T14:14:02.761Z,6.15
2018-05-31T14:16:30.999Z,6.90
2018-05-31T14:18:59.298Z,6.80
2018-05-31T14:21:28.297Z,7.93
2018-05-31T14:23:56.558Z,7.37
2018-05-31T14:26:25.554Z,7.35
2018-05-31T14:28:54.559Z,7.15
2018-05-31T14:31:22.803Z,7.00
2018-05-31T14:33:51.301Z,7.30
2018-05-31T14:36:20.301Z,7.00
2018-05-31T14:38:48.534Z,6.43
2018-05-31T14:41:16.949Z,6.95
2018-05-31T14:43:45.954Z,7.18
2018-05-31T14:46:14.192Z,8.02
2018-05-31T14:48:42.445Z,8.27
2018-05-31T14:51:10.678Z,7.43
2018-05-31T14:53:38.925Z,7.90
2018-05-31T14:56:07.166Z,7.95
2018-05-31T14:58:35.418Z,8.32
2018-05-31T15:01:03.653Z,8.27
2018-05-31T15:03:31.893Z,8.38
2018-05-31T15:06:00.157Z,8.57
2018-05-31T15:08:28.389Z,7.65
2018-05-31T15:10:57.397Z,8.10
2018-05-31T15:13:26.418Z,8.38
2018-05-31T15:15:54.653Z,8.32
2018-05-31T15:18:23.678Z,7.90
2018-05-31T15:20:51.913Z,7.85
2018-05-31T15:23:20.936Z,7.95
2018-05-31T15:25:49.174Z,7.40
2018-05-31T15:28:17.417Z,7.65
2018-05-31T15:30:45.671Z,6.75
2018-05-31T15:33:13.903Z,7.07
2018-05-31T15:35:42.145Z,7.40
2018-05-31T15:38:10.382Z,6.72
2018-05-31T15:40:38.630Z,7.40
2018-05-31T15:43:06.865Z,7.82
2018-05-31T15:45:35.111Z,7.93
2018-05-31T15:48:03.357Z,7.25
2018-05-31T15:50:32.383Z,7.05
2018-05-31T15:53:00.606Z,7.62
2018-05-31T15:55:28.838Z,7.32
2018-05-31T15:57:57.297Z,8.13
2018-05-31T16:00:26.311Z,7.95
2018-05-31T16:02:54.553Z,7.80
2018-05-31T16:05:22.806Z,7.78
2018-05-31T16:07:51.042Z,7.45
2018-05-31T16:10:19.402Z,7.75
2018-05-31T16:12:47.638Z,7.65
2018-05-31T16:15:16.659Z,8.10
2018-05-31T16:17:45.765Z,8.02
2018-05-31T16:20:14.011Z,8.68
2018-05-31T16:22:42.250Z,8.15
2018-05-31T16:25:10.494Z,7.93
2018-05-31T16:27:38.737Z,8.50
2018-05-31T16:30:06.991Z,8.52
2018-05-31T16:32:35.218Z,8.00
2018-05-31T16:35:03.483Z,8.75
2018-05-31T16:37:31.706Z,8.02
2018-05-31T16:39:59.958Z,7.78
2018-05-31T16:42:28.218Z,7.03
2018-05-31T16:44:57.225Z,7.40
2018-05-31T16:47:25.466Z,7.23
2018-05-31T16:49:53.717Z,6.83
2018-05-31T16:52:21.954Z,7.20
2018-05-31T16:54:50.198Z,6.30
2018-05-31T16:57:19.218Z,6.55
2018-05-31T16:59:47.461Z,7.10
2018-05-31T17:02:15.709Z,7.30
2018-05-31T17:04:44.019Z,7.37
2018-05-31T17:07:12.205Z,7.05
2018-05-31T17:09:41.210Z,6.50
2018-05-31T17:12:09.460Z,7.15
2018-05-31T17:14:38.466Z,6.97
2018-05-31T17:17:07.477Z,6.83
2018-05-31T17:19:35.722Z,6.43
2018-05-31T17:22:04.730Z,6.65
2018-05-31T17:24:33.751Z,7.00
2018-05-31T17:27:02.004Z,7.22
2018-05-31T17:29:31.002Z,6.90
2018-05-31T17:32:00.013Z,6.67
2018-05-31T17:34:28.258Z,6.97
2018-05-31T17:36:57.269Z,6.93
2018-05-31T17:39:25.518Z,6.60
2018-05-31T17:41:54.631Z,6.87
2018-05-31T17:44:23.814Z,6.37
2018-05-31T17:46:52.970Z,7.10
2018-05-31T17:49:21.270Z,7.33
2018-05-31T17:51:49.446Z,6.83
2018-05-31T17:54:17.694Z,6.67
2018-05-31T17:56:45.951Z,6.80
2018-05-31T17:59:14.178Z,7.47
2018-05-31T18:01:42.474Z,7.33
2018-05-31T18:04:11.474Z,6.97
2018-05-31T18:06:39.721Z,7.00
2018-05-31T18:09:07.971Z,7.17
2018-05-31T18:11:36.205Z,7.23
2018-05-31T18:14:04.468Z,7.53
2018-05-31T18:16:32.707Z,6.83
2018-05-31T18:19:00.945Z,7.40
2018-05-31T18:21:29.215Z,7.93
2018-05-31T18:23:57.461Z,8.87
2018-05-31T18:26:26.566Z,7.30
2018-05-31T18:28:55.565Z,5.30
2018-05-31T18:31:23.798Z,4.90
2018-05-31T18:33:52.066Z,3.50
2018-05-31T18:36:20.489Z,3.03
2018-05-31T18:38:48.902Z,3.33
2018-05-31T18:41:17.121Z,2.80
2018-05-31T18:43:45.364Z,3.23
2018-05-31T18:46:13.598Z,3.80
2018-05-31T18:48:41.845Z,3.53
2018-05-31T18:51:11.598Z,3.63
2018-05-31T18:53:39.895Z,3.67
2018-05-31T18:56:08.342Z,3.00
2018-05-31T18:58:37.334Z,3.50
2018-05-31T19:01:06.337Z,3.20
2018-05-31T19:03:34.594Z,2.80
2018-05-31T19:06:03.589Z,3.13
2018-05-31T19:08:31.875Z,3.30
2018-05-31T19:11:00.960Z,3.20
2018-05-31T19:13:35.511Z,2.93
2018-05-31T19:16:03.746Z,2.83
2018-05-31T19:18:38.370Z,2.43
2018-05-31T19:21:06.606Z,3.00
2018-05-31T19:23:34.853Z,2.70
2018-05-31T19:26:03.098Z,3.27
2018-05-31T19:28:31.334Z,3.10
2018-05-31T19:31:05.154Z,3.40
2018-05-31T19:33:33.391Z,3.40
2018-05-31T19:36:07.090Z,3.17
2018-05-31T19:38:35.377Z,3.20
2018-05-31T19:41:03.929Z,3.67
2018-05-31T19:43:38.398Z,3.03
2018-05-31T19:46:06.651Z,3.00
2018-05-31T19:48:34.898Z,3.23
2018-05-31T19:51:03.902Z,2.80
2018-05-31T19:53:37.664Z,3.10
2018-05-31T19:56:05.892Z,2.73
2018-05-31T19:58:39.666Z,2.80
2018-05-31T20:01:14.229Z,3.00
2018-05-31T20:03:42.458Z,3.23
2018-05-31T20:06:10.706Z,3.37
2018-05-31T20:08:38.938Z,2.80
2018-05-31T20:11:07.178Z,2.97
2018-05-31T20:13:35.591Z,2.70
2018-05-31T20:16:04.629Z,2.93
2018-05-31T20:18:32.872Z,3.00
2018-05-31T20:21:02.071Z,2.60
2018-05-31T20:23:30.326Z,2.90
2018-05-31T20:25:59.322Z,2.70
2018-05-31T20:28:28.326Z,3.00
2018-05-31T20:30:56.709Z,3.83
2018-05-31T20:33:25.594Z,3.67
2018-05-31T20:35:54.593Z,3.87
2018-05-31T20:38:22.834Z,3.77
2018-05-31T20:40:51.076Z,4.07
2018-05-31T20:43:19.310Z,3.77
2018-05-31T20:45:47.558Z,4.10
2018-05-31T20:48:15.803Z,3.70
2018-05-31T20:50:44.045Z,3.83
2018-05-31T20:53:12.297Z,3.87
2018-05-31T20:55:41.303Z,3.70
2018-05-31T20:58:10.305Z,3.93
2018-05-31T21:00:38.565Z,3.83
2018-05-31T21:03:07.555Z,3.90
2018-05-31T21:05:36.584Z,4.10
2018-05-31T21:08:04.810Z,4.20
2018-05-31T21:10:33.838Z,5.10
2018-05-31T21:13:02.081Z,5.03
2018-05-31T21:15:31.102Z,4.73
2018-05-31T21:17:59.361Z,5.20
2018-05-31T21:20:28.378Z,5.60
2018-05-31T21:22:56.622Z,5.63
2018-05-31T21:25:25.641Z,5.57
2018-05-31T21:27:53.874Z,5.27
2018-05-31T21:30:22.118Z,5.00
2018-05-31T21:32:50.571Z,5.67
2018-05-31T21:35:18.822Z,5.77
2018-05-31T21:37:47.070Z,6.20
2018-05-31T21:40:15.490Z,5.70
2018-05-31T21:42:44.502Z,6.13
2018-05-31T21:45:12.731Z,6.00
2018-05-31T21:47:40.976Z,6.00
2018-05-31T21:50:09.214Z,6.17
2018-05-31T21:52:37.476Z,5.80
2018-05-31T21:55:07.199Z,6.73
2018-05-31T21:57:35.441Z,6.70
2018-05-31T22:00:03.695Z,6.60
2018-05-31T22:02:31.954Z,6.60
2018-05-31T22:05:00.185Z,7.00
2018-05-31T22:07:29.204Z,7.10
2018-05-31T22:09:57.486Z,6.90
2018-05-31T22:12:25.741Z,6.40
2018-05-31T22:14:54.745Z,7.23
2018-05-31T22:17:22.989Z,6.57
2018-05-31T22:19:51.242Z,6.93
2018-05-31T22:22:19.485Z,7.77
2018-05-31T22:24:47.724Z,6.47
2018-05-31T22:27:16.718Z,5.97
2018-05-31T22:29:45.730Z,7.10
2018-05-31T22:32:13.971Z,6.83
2018-05-31T22:34:42.224Z,6.80
2018-05-31T22:37:10.458Z,7.17
2018-05-31T22:39:38.718Z,6.63
2018-05-31T22:42:07.725Z,7.07
2018-05-31T22:44:35.978Z,6.90
2018-05-31T22:47:04.231Z,7.13
2018-05-31T22:49:32.486Z,6.47
2018-05-31T22:52:00.717Z,6.93
2018-05-31T22:54:29.726Z,7.10
2018-05-31T22:56:57.973Z,6.20
2018-05-31T22:59:26.971Z,6.30
2018-05-31T23:01:55.974Z,6.10
2018-05-31T23:04:25.106Z,5.83
2018-05-31T23:06:53.338Z,5.23
2018-05-31T23:09:22.334Z,4.90
2018-05-31T23:11:51.354Z,5.20
2018-05-31T23:14:19.586Z,5.20
2018-05-31T23:16:47.813Z,5.47
2018-05-31T23:19:16.058Z,5.27
2018-05-31T23:21:44.289Z,5.60
2018-05-31T23:24:12.625Z,4.80
2018-05-31T23:26:40.854Z,4.93
2018-05-31T23:29:09.086Z,4.70
2018-05-31T23:31:37.331Z,5.10
2018-05-31T23:34:06.330Z,4.97
2018-05-31T23:36:34.573Z,5.23
2018-05-31T23:39:02.805Z,5.77
2018-05-31T23:41:31.051Z,5.00
2018-05-31T23:44:00.061Z,5.47
2018-05-31T23:46:28.306Z,5.03
2018-05-31T23:48:57.321Z,4.97
2018-05-31T23:51:25.570Z,5.20
2018-05-31T23:53:53.809Z,5.40
2018-05-31T23:56:22.046Z,4.07
2018-05-31T23:58:50.289Z,4.17
